Time;durP1;ratioP1;P1;durP2;ratioP2;P2;SDS_P1;SDS_P2;PMS_P1;PMS_P2;Temp;Humidity;BMP_temperature;BMP_pressure;BME280_temperature;BME280_humidity;BME280_pressure;Samples;Min_cycle;Max_cycle;Signal;HPM_P1;HPM_P2
2023/09/10 00:00:33;;;;;;;7.75;4.65;;;19.50;90.80;;;;;;5032027;28;20041;-57
2023/09/10 00:03:37;;;;;;;6.78;4.38;;;19.50;90.90;;;;;;5032318;28;20503;-55
2023/09/10 00:06:41;;;;;;;7.18;4.88;;;19.50;90.50;;;;;;5032341;28;20507;-56
2023/09/10 00:09:45;;;;;;;6.22;4.32;;;19.40;90.50;;;;;;5032038;28;20511;-54
2023/09/10 00:12:49;;;;;;;18.10;4.72;;;19.30;90.90;;;;;;5032232;28;20048;-56
2023/09/10 00:15:55;;;;;;;10.85;4.53;;;19.30;90.80;;;;;;5032194;28;20044;-54
2023/09/10 00:18:59;;;;;;;9.35;4.68;;;19.20;91.30;;;;;;5031681;28;20040;-55
2023/09/10 00:22:03;;;;;;;5.57;4.43;;;19.10;91.80;;;;;;5030122;28;20040;-54
2023/09/10 00:25:07;;;;;;;6.57;4.47;;;19.10;92.20;;;;;;5031605;28;20048;-53
2023/09/10 00:28:11;;;;;;;7.68;4.80;;;19.10;92.50;;;;;;5031616;28;20503;-54
2023/09/10 00:31:15;;;;;;;11.23;4.18;;;19.10;92.30;;;;;;5031512;28;20040;-56
2023/09/10 00:34:19;;;;;;;6.88;4.85;;;19.10;92.20;;;;;;5031639;28;20415;-53
2023/09/10 00:37:23;;;;;;;8.88;5.10;;;19.00;93.50;;;;;;5012308;28;20040;-53
2023/09/10 00:40:28;;;;;;;6.97;4.80;;;18.90;93.70;;;;;;5007433;28;20040;-54
2023/09/10 00:43:33;;;;;;;6.35;4.90;;;18.80;93.30;;;;;;5027231;28;20045;-54
2023/09/10 00:46:37;;;;;;;7.25;5.20;;;18.90;94.10;;;;;;5031615;28;20127;-55
2023/09/10 00:49:43;;;;;;;8.73;4.93;;;18.80;94.60;;;;;;5031459;28;20041;-53
2023/09/10 00:52:56;;;;;;;9.10;5.13;;;18.80;95.50;;;;;;5030067;28;20503;-53
2023/09/10 00:56:00;;;;;;;9.27;5.25;;;18.80;95.70;;;;;;5031020;28;20412;-56
2023/09/10 00:59:04;;;;;;;9.23;4.75;;;18.90;95.70;;;;;;5031253;28;20048;-55
2023/09/10 01:02:09;;;;;;;8.80;4.60;;;18.90;95.60;;;;;;5029972;28;20040;-54
2023/09/10 01:05:16;;;;;;;9.27;4.90;;;19.00;96.00;;;;;;5011008;28;20524;-54
2023/09/10 01:08:20;;;;;;;6.97;5.32;;;19.00;95.90;;;;;;5029312;28;20052;-54
2023/09/10 01:11:34;;;;;;;9.40;5.18;;;18.90;96.00;;;;;;4999600;28;20429;-57
2023/09/10 01:14:38;;;;;;;8.20;5.05;;;18.80;95.60;;;;;;5011708;28;20408;-55
2023/09/10 01:18:10;;;;;;;7.88;4.88;;;18.80;95.50;;;;;;5016728;28;20057;-55
2023/09/10 01:21:15;;;;;;;7.18;5.10;;;18.70;94.00;;;;;;5031140;28;20392;-56
2023/09/10 01:24:38;;;;;;;8.10;5.00;;;18.60;92.90;;;;;;5031657;28;20041;-57
2023/09/10 01:27:43;;;;;;;5.97;4.22;;;18.60;93.20;;;;;;5030816;28;20045;-56
2023/09/10 01:30:47;;;;;;;7.07;4.07;;;18.50;92.10;;;;;;5031202;28;20044;-57
2023/09/10 01:33:54;;;;;;;7.22;3.70;;;18.50;91.90;;;;;;5031359;28;20048;-56
2023/09/10 01:37:07;;;;;;;4.95;3.58;;;18.40;91.10;;;;;;5031053;28;20044;-57
2023/09/10 01:40:19;;;;;;;6.45;4.35;;;18.30;90.50;;;;;;5030939;28;20408;-56
2023/09/10 01:43:24;;;;;;;7.25;4.60;;;18.40;91.00;;;;;;5019332;28;20064;-56
2023/09/10 01:46:30;;;;;;;5.78;3.65;;;18.40;92.60;;;;;;5023564;28;20049;-58
2023/09/10 01:49:36;;;;;;;7.40;4.43;;;18.30;91.40;;;;;;5020787;28;20510;-57
2023/09/10 01:52:40;;;;;;;10.00;4.47;;;18.30;91.90;;;;;;5021472;28;20044;-54
2023/09/10 01:55:45;;;;;;;8.68;4.50;;;18.20;92.90;;;;;;5032035;28;20048;-56
2023/09/10 01:58:49;;;;;;;5.32;4.25;;;18.10;95.90;;;;;;5029074;28;20044;-54
2023/09/10 02:01:53;;;;;;;5.03;3.67;;;18.10;95.90;;;;;;5028672;28;20408;-57
2023/09/10 02:04:57;;;;;;;6.43;4.63;;;18.00;93.40;;;;;;5034688;28;20507;-54
2023/09/10 02:08:02;;;;;;;7.70;4.28;;;18.00;93.70;;;;;;5002801;28;20049;-54
2023/09/10 02:11:06;;;;;;;7.80;3.42;;;17.90;94.00;;;;;;5032428;28;20040;-57
2023/09/10 02:14:10;;;;;;;8.60;4.00;;;17.90;94.10;;;;;;5034697;28;20048;-57
2023/09/10 02:17:15;;;;;;;9.98;4.90;;;17.80;94.00;;;;;;5033581;28;20400;-58
2023/09/10 02:20:19;;;;;;;8.38;5.07;;;17.90;95.20;;;;;;5033108;28;20044;-55
2023/09/10 02:23:23;;;;;;;5.43;4.05;;;17.90;95.40;;;;;;5034040;28;20774;-57
2023/09/10 02:26:28;;;;;;;6.53;4.57;;;17.90;95.50;;;;;;5033095;28;20053;-58
2023/09/10 02:29:32;;;;;;;7.68;4.63;;;18.00;94.80;;;;;;5013983;28;20033;-54
2023/09/10 02:32:37;;;;;;;13.13;5.05;;;18.00;94.90;;;;;;5014359;28;20045;-56
2023/09/10 02:35:42;;;;;;;8.75;4.90;;;18.00;95.50;;;;;;5014401;28;20053;-53
2023/09/10 02:38:45;;;;;;;6.70;4.82;;;18.00;95.20;;;;;;5031141;28;20053;-56
2023/09/10 02:41:49;;;;;;;9.13;4.55;;;18.00;95.00;;;;;;5021312;28;20052;-54
2023/09/10 02:44:53;;;;;;;8.27;4.40;;;17.90;94.50;;;;;;5044129;28;20044;-57
2023/09/10 02:47:57;;;;;;;8.73;4.50;;;17.90;94.60;;;;;;5014141;28;20049;-54
2023/09/10 02:51:01;;;;;;;7.03;4.70;;;17.90;94.00;;;;;;5001847;28;20040;-58
2023/09/10 02:54:05;;;;;;;7.25;4.80;;;17.80;93.80;;;;;;5025475;28;20040;-56
2023/09/10 02:57:09;;;;;;;9.68;4.57;;;17.70;94.00;;;;;;5044124;28;20048;-54
2023/09/10 03:00:14;;;;;;;5.03;3.92;;;17.60;93.60;;;;;;5021229;28;20060;-54
2023/09/10 03:03:19;;;;;;;5.15;3.70;;;17.30;92.90;;;;;;5020625;28;20052;-56
2023/09/10 03:06:24;;;;;;;5.57;3.78;;;17.30;93.20;;;;;;5021421;28;20420;-55
2023/09/10 03:09:28;;;;;;;10.70;5.20;;;17.30;93.50;;;;;;5033384;28;20432;-56
2023/09/10 03:12:32;;;;;;;12.80;4.75;;;16.50;96.60;;;;;;5013788;28;20041;-57
2023/09/10 03:15:37;;;;;;;7.40;4.63;;;17.10;96.90;;;;;;5001777;28;20049;-54
2023/09/10 03:18:41;;;;;;;8.05;3.88;;;17.10;96.60;;;;;;5013625;28;20069;-54
2023/09/10 03:21:47;;;;;;;5.25;3.92;;;17.00;94.60;;;;;;5001009;28;20070;-53
2023/09/10 03:24:51;;;;;;;6.25;3.80;;;17.00;94.20;;;;;;5001487;28;20049;-54
2023/09/10 03:27:55;;;;;;;6.28;4.05;;;17.10;92.90;;;;;;5013178;28;20440;-53
2023/09/10 03:30:58;;;;;;;8.30;4.35;;;17.00;93.50;;;;;;5029046;28;20045;-53
2023/09/10 03:34:03;;;;;;;6.45;4.00;;;17.00;94.80;;;;;;5020809;28;20040;-54
2023/09/10 03:37:07;;;;;;;6.35;3.97;;;17.00;94.20;;;;;;5033126;28;20053;-56
2023/09/10 03:40:12;;;;;;;5.63;3.70;;;17.00;94.50;;;;;;5020445;28;20048;-53
2023/09/10 03:43:17;;;;;;;5.78;3.90;;;17.00;94.70;;;;;;5020895;28;20239;-57
2023/09/10 03:46:21;;;;;;;8.75;4.22;;;17.00;95.00;;;;;;5043496;28;20045;-56
2023/09/10 03:49:25;;;;;;;5.57;4.20;;;17.00;96.30;;;;;;5043502;28;20032;-58
2023/09/10 03:52:30;;;;;;;5.75;4.28;;;17.00;96.30;;;;;;5043345;28;20053;-57
2023/09/10 03:55:34;;;;;;;6.38;4.38;;;17.00;96.80;;;;;;5020412;28;20041;-56
2023/09/10 03:58:38;;;;;;;6.97;4.72;;;17.00;97.60;;;;;;5031922;28;20052;-54
2023/09/10 04:01:42;;;;;;;6.85;4.35;;;17.00;97.50;;;;;;5031490;28;20044;-54
2023/09/10 04:04:46;;;;;;;7.63;4.25;;;16.90;97.70;;;;;;5031741;28;20055;-57
2023/09/10 04:07:50;;;;;;;7.72;4.32;;;16.90;98.00;;;;;;5031684;28;20048;-57
2023/09/10 04:10:54;;;;;;;7.35;4.68;;;16.90;98.30;;;;;;5031302;28;20040;-55
2023/09/10 04:13:58;;;;;;;7.45;4.60;;;16.90;98.70;;;;;;5032299;28;20041;-55
2023/09/10 04:17:03;;;;;;;11.75;5.63;;;16.90;98.80;;;;;;5000289;28;20049;-53
2023/09/10 04:20:09;;;;;;;6.88;4.75;;;16.90;99.00;;;;;;4999875;28;20578;-54
2023/09/10 04:23:13;;;;;;;8.48;4.55;;;16.90;99.10;;;;;;5027874;28;20240;-54
2023/09/10 04:26:17;;;;;;;9.68;4.78;;;16.90;99.60;;;;;;5019771;28;20048;-53
2023/09/10 04:29:22;;;;;;;9.18;4.95;;;16.90;99.70;;;;;;5019747;28;20052;-54
2023/09/10 04:32:26;;;;;;;9.48;4.90;;;16.80;99.90;;;;;;5000303;28;20128;-55
2023/09/10 04:35:30;;;;;;;9.15;4.15;;;16.90;99.90;;;;;;4989068;28;20048;-54
2023/09/10 04:38:34;;;;;;;8.95;5.07;;;16.90;99.90;;;;;;5012109;28;20045;-59
2023/09/10 04:41:38;;;;;;;8.07;4.75;;;16.80;99.90;;;;;;4999879;28;20048;-56
2023/09/10 04:44:42;;;;;;;7.40;4.65;;;16.80;99.90;;;;;;4999933;28;20045;-55
2023/09/10 04:47:46;;;;;;;8.90;5.00;;;16.70;99.90;;;;;;5025767;28;20045;-53
2023/09/10 04:50:49;;;;;;;8.40;4.90;;;16.50;99.90;;;;;;5027553;28;20044;-54
2023/09/10 04:53:54;;;;;;;12.60;5.28;;;15.50;99.90;;;;;;5028087;28;20037;-57
2023/09/10 04:56:58;;;;;;;12.75;5.53;;;16.10;99.90;;;;;;5038419;28;20052;-56
2023/09/10 05:00:05;;;;;;;9.20;4.97;;;16.00;99.90;;;;;;5025008;28;20043;-53
2023/09/10 05:03:09;;;;;;;13.82;5.53;;;15.90;99.90;;;;;;5020198;28;20096;-53
2023/09/10 05:06:14;;;;;;;7.45;4.85;;;15.80;99.90;;;;;;5023525;28;20048;-56
2023/09/10 05:09:19;;;;;;;11.38;5.63;;;14.80;99.90;;;;;;4999716;28;20045;-54
2023/09/10 05:12:23;;;;;;;12.13;5.20;;;15.60;99.90;;;;;;4999753;28;20045;-54
2023/09/10 05:15:27;;;;;;;8.63;5.18;;;15.60;99.90;;;;;;5018980;28;20040;-55
2023/09/10 05:18:31;;;;;;;7.97;4.50;;;15.70;99.90;;;;;;5020198;28;20044;-55
2023/09/10 05:21:35;;;;;;;14.02;5.07;;;15.90;99.90;;;;;;5019288;28;20045;-54
2023/09/10 05:24:39;;;;;;;7.60;4.55;;;16.00;99.90;;;;;;5027634;28;20044;-54
2023/09/10 05:27:46;;;;;;;15.70;5.65;;;16.10;99.90;;;;;;5033993;28;20519;-55
2023/09/10 05:30:49;;;;;;;13.35;6.00;;;16.20;99.90;;;;;;5021871;28;20045;-57
2023/09/10 05:33:53;;;;;;;7.75;4.80;;;16.30;99.90;;;;;;5032991;28;20404;-56
2023/09/10 05:36:58;;;;;;;8.60;4.75;;;16.50;99.90;;;;;;5025596;28;20056;-54
2023/09/10 05:40:03;;;;;;;14.57;4.45;;;17.50;99.90;;;;;;5034845;28;20048;-55
2023/09/10 05:43:07;;;;;;;11.48;5.05;;;20.70;99.90;;;;;;5022958;28;20044;-54
2023/09/10 05:46:13;;;;;;;10.85;4.90;;;23.70;95.20;;;;;;5022520;28;20404;-54
2023/09/10 05:49:17;;;;;;;7.68;4.78;;;25.40;92.10;;;;;;5045518;28;20044;-56
2023/09/10 05:52:21;;;;;;;8.02;5.18;;;26.10;88.80;;;;;;5022556;28;20047;-58
2023/09/10 05:55:26;;;;;;;8.05;5.63;;;28.20;82.00;;;;;;5022385;28;20040;-59
2023/09/10 05:58:32;;;;;;;6.80;5.07;;;28.10;82.50;;;;;;5024611;28;20408;-55
2023/09/10 06:01:36;;;;;;;8.13;5.60;;;28.70;80.60;;;;;;5022357;28;20036;-55
2023/09/10 06:04:39;;;;;;;9.48;4.68;;;29.20;79.10;;;;;;5025243;28;20053;-55
2023/09/10 06:07:44;;;;;;;8.50;5.90;;;29.90;77.60;;;;;;5025137;28;20044;-58
2023/09/10 06:10:48;;;;;;;6.97;4.90;;;30.60;76.40;;;;;;5022292;28;20408;-58
2023/09/10 06:13:52;;;;;;;7.53;5.00;;;31.20;74.20;;;;;;5002888;28;20049;-59
2023/09/10 06:16:59;;;;;;;5.72;4.22;;;31.20;73.90;;;;;;5018221;28;20064;-58
2023/09/10 06:20:05;;;;;;;10.43;4.63;;;31.90;73.20;;;;;;5034337;28;20048;-56
2023/09/10 06:23:09;;;;;;;8.15;4.30;;;32.60;71.90;;;;;;5044733;28;20040;-57
2023/09/10 06:26:13;;;;;;;10.20;4.60;;;32.70;71.00;;;;;;5034158;28;20048;-58
2023/09/10 06:29:18;;;;;;;6.68;4.50;;;33.10;69.90;;;;;;5022194;28;20064;-54
2023/09/10 06:32:22;;;;;;;5.68;3.83;;;32.70;69.10;;;;;;5033079;28;20396;-57
2023/09/10 06:35:26;;;;;;;8.38;4.20;;;33.00;69.10;;;;;;5008654;28;20048;-55
2023/09/10 06:38:30;;;;;;;8.50;4.30;;;32.10;69.10;;;;;;5033349;28;20546;-55
2023/09/10 06:41:34;;;;;;;6.20;3.70;;;33.00;68.40;;;;;;5027177;28;20132;-59
2023/09/10 06:44:43;;;;;;;4.30;3.63;;;32.80;68.10;;;;;;5021932;28;20130;-59
2023/09/10 06:47:47;;;;;;;8.38;4.25;;;31.90;68.50;;;;;;5033337;28;20041;-57
2023/09/10 06:50:51;;;;;;;10.77;4.45;;;31.60;69.40;;;;;;5031597;28;20032;-58
2023/09/10 06:53:55;;;;;;;6.28;3.60;;;30.90;69.30;;;;;;5033910;28;20076;-57
2023/09/10 06:56:58;;;;;;;10.68;4.00;;;31.30;69.30;;;;;;5034076;28;20125;-54
2023/09/10 07:00:03;;;;;;;4.22;3.60;;;31.10;69.60;;;;;;5033711;28;20048;-57
2023/09/10 07:03:08;;;;;;;5.00;3.30;;;31.80;68.80;;;;;;5033502;28;20048;-55
2023/09/10 07:06:12;;;;;;;8.75;3.47;;;31.70;68.20;;;;;;5033578;28;20048;-58
2023/09/10 07:09:21;;;;;;;5.43;3.53;;;32.30;67.60;;;;;;5033705;28;20400;-59
2023/09/10 07:12:25;;;;;;;4.95;3.28;;;32.70;67.30;;;;;;5013725;28;20416;-60
2023/09/10 07:15:29;;;;;;;4.47;3.20;;;33.90;66.20;;;;;;5013807;28;20114;-60
2023/09/10 07:18:33;;;;;;;4.70;3.25;;;34.50;65.40;;;;;;5016775;28;20112;-59
2023/09/10 07:21:38;;;;;;;6.80;3.58;;;35.50;64.60;;;;;;5033059;28;20048;-60
2023/09/10 07:24:42;;;;;;;11.73;3.88;;;36.30;63.30;;;;;;5033371;28;20036;-54
2023/09/10 07:27:46;;;;;;;3.58;3.17;;;34.60;63.20;;;;;;5032974;28;20040;-57
2023/09/10 07:30:49;;;;;;;7.38;3.60;;;34.50;64.70;;;;;;5032638;28;20053;-59
2023/09/10 07:33:53;;;;;;;5.45;2.88;;;34.50;64.10;;;;;;5031279;28;20053;-55
2023/09/10 07:36:57;;;;;;;4.82;3.25;;;34.20;65.30;;;;;;5013404;28;20056;-55
2023/09/10 07:40:01;;;;;;;5.47;3.10;;;34.60;64.30;;;;;;5011803;28;20060;-58
2023/09/10 07:43:06;;;;;;;3.88;3.35;;;34.20;65.00;;;;;;5021879;28;20040;-55
2023/09/10 07:46:10;;;;;;;8.20;3.75;;;34.10;64.00;;;;;;5032921;28;20412;-59
2023/09/10 07:49:14;;;;;;;4.78;3.13;;;33.40;64.50;;;;;;5032522;28;20511;-57
2023/09/10 07:52:18;;;;;;;6.45;3.45;;;32.60;64.70;;;;;;5032632;28;20060;-59
2023/09/10 07:55:21;;;;;;;5.20;3.45;;;31.70;64.40;;;;;;5032649;28;20037;-54
2023/09/10 07:58:25;;;;;;;5.22;3.28;;;32.70;67.10;;;;;;5032542;28;20056;-56
2023/09/10 08:01:29;;;;;;;3.83;3.08;;;33.80;64.20;;;;;;5032238;28;20120;-54
2023/09/10 08:04:34;;;;;;;5.50;3.40;;;35.40;63.40;;;;;;5032374;28;20044;-57
2023/09/10 08:07:38;;;;;;;7.90;3.50;;;33.70;64.80;;;;;;5032131;28;20045;-56
2023/09/10 08:10:43;;;;;;;7.18;3.00;;;34.20;65.10;;;;;;5032282;28;20044;-54
2023/09/10 08:13:47;;;;;;;7.70;3.70;;;34.00;65.30;;;;;;5031689;28;20044;-55
2023/09/10 08:16:51;;;;;;;4.80;3.55;;;34.40;65.80;;;;;;5012680;28;20049;-54
2023/09/10 08:19:55;;;;;;;6.00;3.78;;;34.10;65.50;;;;;;5011979;28;20045;-56
2023/09/10 08:22:59;;;;;;;7.18;3.75;;;35.90;64.00;;;;;;5027074;28;20056;-56
2023/09/10 08:26:03;;;;;;;11.02;3.45;;;36.50;63.70;;;;;;5032239;28;20518;-62
2023/09/10 08:29:07;;;;;;;4.45;3.22;;;38.60;62.90;;;;;;5032075;28;20507;-57
2023/09/10 08:32:11;;;;;;;8.23;3.33;;;38.90;61.20;;;;;;5031789;28;20048;-58
2023/09/10 08:35:18;;;;;;;6.05;3.47;;;37.80;60.90;;;;;;5030131;28;20041;-58
2023/09/10 08:38:22;;;;;;;5.15;3.63;;;36.20;61.90;;;;;;5031793;28;20052;-56
2023/09/10 08:42:07;;;;;;;5.13;3.30;;;36.80;62.60;;;;;;5031521;28;20519;-58
2023/09/10 08:48:17;;;;;;;7.63;3.40;;;37.10;61.50;;;;;;5048931;28;20041;-64
2023/09/10 08:51:22;;;;;;;10.48;3.47;;;35.50;62.20;;;;;;5048623;28;20039;-61
2023/09/10 08:54:27;;;;;;;6.50;3.55;;;36.80;62.20;;;;;;5031704;28;20507;-63
2023/09/10 08:57:32;;;;;;;6.25;3.28;;;37.30;61.10;;;;;;5036271;28;20057;-63
2023/09/10 09:00:38;;;;;;;4.72;3.25;;;38.70;60.30;;;;;;5034045;28;20047;-62
2023/09/10 09:03:42;;;;;;;6.45;3.40;;;40.10;59.20;;;;;;5031714;28;20061;-63
2023/09/10 09:06:53;;;;;;;6.95;3.30;;;40.10;58.40;;;;;;5031429;28;20045;-63
2023/09/10 09:10:02;;;;;;;6.18;2.70;;;41.40;56.50;;;;;;5031455;28;20037;-63
2023/09/10 09:13:10;;;;;;;4.13;2.97;;;41.30;56.30;;;;;;5021196;28;20036;-63
2023/09/10 09:16:15;;;;;;;8.57;3.10;;;40.50;56.40;;;;;;5031675;28;20040;-63
2023/09/10 09:19:22;;;;;;;5.00;2.90;;;42.70;54.40;;;;;;5031598;28;20412;-63
2023/09/10 09:22:29;;;;;;;9.48;3.10;;;42.70;54.30;;;;;;5031546;28;20065;-62
2023/09/10 09:25:36;;;;;;;4.57;2.80;;;43.50;54.50;;;;;;5032757;28;20515;-62
2023/09/10 09:28:40;;;;;;;4.70;2.50;;;43.80;53.80;;;;;;5051383;28;20040;-63
2023/09/10 09:31:44;;;;;;;6.43;3.10;;;43.40;53.20;;;;;;5039851;28;20044;-64
2023/09/10 09:34:48;;;;;;;3.20;2.70;;;44.60;52.80;;;;;;5034392;28;20040;-62
2023/09/10 09:37:52;;;;;;;5.45;2.78;;;46.40;51.50;;;;;;5031269;28;20048;-64
2023/09/10 09:40:55;;;;;;;8.48;2.80;;;44.50;51.20;;;;;;5043054;28;20039;-63
2023/09/10 09:44:01;;;;;;;5.00;2.40;;;44.80;50.90;;;;;;5042536;28;20044;-62
2023/09/10 09:47:11;;;;;;;3.00;2.38;;;45.70;51.20;;;;;;5047904;28;20495;-64
2023/09/10 09:50:15;;;;;;;4.93;2.50;;;47.50;50.20;;;;;;5047535;28;20044;-64
2023/09/10 09:53:24;;;;;;;4.97;2.75;;;44.90;51.10;;;;;;5034487;28;20045;-63
2023/09/10 09:56:29;;;;;;;3.70;2.58;;;42.20;51.00;;;;;;5033737;28;20511;-63
2023/09/10 09:59:35;;;;;;;3.47;2.55;;;43.80;51.50;;;;;;5041931;28;20048;-63
2023/09/10 10:02:41;;;;;;;4.38;2.58;;;44.50;51.30;;;;;;5031167;28;20040;-64
2023/09/10 10:05:51;;;;;;;6.90;2.75;;;46.50;50.80;;;;;;5048361;28;20048;-64
2023/09/10 10:08:55;;;;;;;3.20;2.22;;;45.40;49.30;;;;;;5050871;28;20048;-63
2023/09/10 10:11:59;;;;;;;4.35;2.85;;;47.00;49.70;;;;;;5044162;28;20112;-64
2023/09/10 10:15:04;;;;;;;4.25;2.60;;;48.80;49.60;;;;;;5045550;28;20056;-63
2023/09/10 10:18:09;;;;;;;2.95;2.63;;;48.80;48.60;;;;;;5034653;28;20056;-64
2023/09/10 10:21:14;;;;;;;7.10;2.50;;;48.20;47.60;;;;;;5034299;28;20408;-64
2023/09/10 10:24:19;;;;;;;3.70;2.40;;;47.10;47.90;;;;;;5038983;28;20049;-63
2023/09/10 10:27:25;;;;;;;3.42;2.40;;;47.60;48.10;;;;;;5022197;28;20064;-63
2023/09/10 10:30:31;;;;;;;8.30;2.65;;;47.00;47.20;;;;;;5033952;28;20049;-63
2023/09/10 10:33:41;;;;;;;3.38;2.33;;;47.00;48.30;;;;;;5047298;28;20044;-64
2023/09/10 10:37:24;;;;;;;4.45;2.67;;;48.70;47.80;;;;;;5054316;28;20055;-64
2023/09/10 10:40:31;;;;;;;2.78;2.33;;;48.00;46.50;;;;;;5050658;28;20111;-63
2023/09/10 10:43:42;;;;;;;6.35;2.60;;;48.80;47.50;;;;;;5054032;28;20044;-64
2023/09/10 10:46:55;;;;;;;5.50;2.75;;;48.30;47.30;;;;;;5040925;28;20048;-63
2023/09/10 10:49:59;;;;;;;3.08;2.42;;;47.30;46.60;;;;;;5036465;28;20032;-63
2023/09/10 10:53:26;;;;;;;3.50;2.08;;;48.50;46.80;;;;;;5036790;28;20041;-64
2023/09/10 10:56:30;;;;;;;3.65;2.80;;;48.90;46.60;;;;;;5047773;28;20044;-64
2023/09/10 10:59:35;;;;;;;3.30;2.47;;;48.40;46.60;;;;;;5052390;28;20414;-64
2023/09/10 11:02:39;;;;;;;4.82;2.67;;;47.90;46.60;;;;;;5050627;28;20051;-64
2023/09/10 11:05:52;;;;;;;3.35;2.47;;;47.00;47.00;;;;;;5053686;28;20402;-63
2023/09/10 11:08:57;;;;;;;2.92;2.40;;;45.30;46.50;;;;;;5053738;28;20044;-63
2023/09/10 11:12:06;;;;;;;3.67;2.65;;;44.10;48.00;;;;;;5053355;28;20048;-64
2023/09/10 11:15:11;;;;;;;3.45;2.60;;;43.90;48.00;;;;;;5053402;28;20040;-62
2023/09/10 11:18:36;;;;;;;5.53;2.88;;;43.00;48.20;;;;;;5053124;28;20044;-63
2023/09/10 11:21:57;;;;;;;4.95;3.35;;;40.90;49.10;;;;;;5040984;28;20045;-62
2023/09/10 11:25:05;;;;;;;4.53;3.15;;;39.10;50.00;;;;;;5032807;28;20044;-63
2023/09/10 11:28:38;;;;;;;3.40;2.75;;;41.60;50.00;;;;;;5032983;28;20184;-64
2023/09/10 11:31:42;;;;;;;5.10;2.30;;;45.70;48.40;;;;;;5032954;28;20041;-63
2023/09/10 11:34:46;;;;;;;4.75;2.70;;;46.90;46.60;;;;;;5033139;28;20048;-63
2023/09/10 11:37:52;;;;;;;5.13;3.10;;;42.70;47.80;;;;;;5032923;28;20049;-61
2023/09/10 11:40:57;;;;;;;4.70;2.65;;;40.60;49.70;;;;;;5032803;28;20056;-63
2023/09/10 11:44:01;;;;;;;4.95;2.88;;;41.80;49.20;;;;;;5033018;28;20045;-62
2023/09/10 11:47:06;;;;;;;3.05;2.67;;;40.20;49.10;;;;;;5032460;28;20048;-61
2023/09/10 11:50:12;;;;;;;6.70;2.80;;;40.40;49.50;;;;;;5032703;28;20040;-62
2023/09/10 11:53:17;;;;;;;2.78;2.50;;;42.10;49.40;;;;;;5035390;28;20049;-63
2023/09/10 11:56:21;;;;;;;4.95;2.58;;;44.60;48.50;;;;;;5046149;28;20048;-63
2023/09/10 11:59:30;;;;;;;3.47;2.97;;;44.80;48.00;;;;;;5047743;28;20787;-62
2023/09/10 12:02:36;;;;;;;4.63;2.80;;;46.30;47.50;;;;;;5052429;28;20036;-63
2023/09/10 12:05:41;;;;;;;3.05;2.70;;;46.30;47.20;;;;;;5046005;28;20040;-63
2023/09/10 12:08:45;;;;;;;3.90;2.55;;;47.00;47.20;;;;;;5052187;28;20044;-64
2023/09/10 12:11:53;;;;;;;4.35;2.65;;;47.20;46.50;;;;;;5050297;28;20040;-63
2023/09/10 12:14:57;;;;;;;6.93;2.53;;;47.50;46.90;;;;;;5035736;28;20412;-63
2023/09/10 12:18:05;;;;;;;3.85;2.40;;;48.10;46.60;;;;;;5052190;28;20048;-63
2023/09/10 12:21:14;;;;;;;4.68;2.60;;;47.80;45.80;;;;;;5044186;28;20048;-64
2023/09/10 12:24:19;;;;;;;2.95;2.65;;;46.90;47.10;;;;;;5036799;28;20045;-64
2023/09/10 12:27:23;;;;;;;3.70;2.58;;;48.10;46.90;;;;;;5032064;28;20040;-64
2023/09/10 12:30:28;;;;;;;4.20;3.00;;;46.50;46.80;;;;;;5031856;28;20044;-63
2023/09/10 12:33:32;;;;;;;3.33;2.53;;;46.30;46.80;;;;;;5033744;28;20036;-62
2023/09/10 12:36:37;;;;;;;3.33;2.58;;;46.50;46.90;;;;;;5051086;28;20411;-63
2023/09/10 12:39:43;;;;;;;2.95;2.22;;;45.00;47.30;;;;;;5038138;28;20036;-64
2023/09/10 12:42:51;;;;;;;4.88;2.65;;;45.80;47.60;;;;;;5031826;28;20044;-64
2023/09/10 12:45:55;;;;;;;4.03;2.70;;;40.80;47.40;;;;;;5031695;28;20046;-62
2023/09/10 12:49:00;;;;;;;3.53;2.83;;;41.80;49.00;;;;;;5031914;28;20412;-62
2023/09/10 12:52:05;;;;;;;3.67;2.53;;;41.40;49.50;;;;;;5037112;28;20039;-63
2023/09/10 12:55:09;;;;;;;5.45;2.90;;;41.70;49.90;;;;;;5034464;28;20506;-63
2023/09/10 12:58:13;;;;;;;4.68;2.97;;;43.10;49.00;;;;;;5034332;28;20056;-63
2023/09/10 13:01:25;;;;;;;3.47;2.70;;;42.90;48.60;;;;;;5031464;28;20526;-63
2023/09/10 13:04:29;;;;;;;6.72;3.28;;;42.50;48.70;;;;;;5031682;28;20052;-62
2023/09/10 13:07:33;;;;;;;4.57;2.83;;;43.50;48.50;;;;;;5031546;28;20652;-63
2023/09/10 13:10:37;;;;;;;3.28;2.80;;;44.50;48.00;;;;;;5037428;28;20048;-63
2023/09/10 13:13:42;;;;;;;7.00;2.90;;;43.10;48.80;;;;;;5031435;28;20558;-61
2023/09/10 13:16:45;;;;;;;3.75;2.95;;;42.60;49.30;;;;;;5031621;28;20053;-62
2023/09/10 13:19:49;;;;;;;4.88;2.80;;;43.90;48.70;;;;;;5031378;28;20048;-62
2023/09/10 13:22:53;;;;;;;5.40;3.08;;;45.10;47.70;;;;;;5044373;28;20044;-63
2023/09/10 13:25:57;;;;;;;5.25;3.28;;;44.10;48.00;;;;;;5051548;28;20052;-63
2023/09/10 13:29:01;;;;;;;6.40;3.42;;;40.10;49.30;;;;;;5047620;28;20069;-63
2023/09/10 13:32:06;;;;;;;3.28;2.67;;;41.10;49.70;;;;;;5051174;28;20051;-63
2023/09/10 13:35:10;;;;;;;8.73;3.05;;;42.90;49.20;;;;;;5051010;28;20044;-63
2023/09/10 13:38:15;;;;;;;3.90;3.08;;;40.20;49.10;;;;;;5048191;28;20514;-63
2023/09/10 13:41:19;;;;;;;5.80;3.30;;;38.10;51.40;;;;;;5051052;28;20060;-62
2023/09/10 13:44:23;;;;;;;7.35;3.22;;;37.90;51.80;;;;;;5051160;28;20044;-62
2023/09/10 13:47:29;;;;;;;8.57;3.60;;;38.40;51.90;;;;;;5051966;28;20506;-62
2023/09/10 13:50:33;;;;;;;4.55;3.13;;;38.70;51.70;;;;;;5054870;28;20044;-62
2023/09/10 13:53:42;;;;;;;7.55;4.03;;;37.80;52.60;;;;;;5051361;28;20052;-61
2023/09/10 13:56:46;;;;;;;5.35;3.20;;;39.10;52.20;;;;;;5054350;28;20032;-61
2023/09/10 13:59:50;;;;;;;4.75;3.20;;;37.80;52.60;;;;;;5051180;28;20517;-62
2023/09/10 14:02:54;;;;;;;4.40;3.30;;;37.20;53.30;;;;;;5065485;28;20391;-63
2023/09/10 14:05:58;;;;;;;4.82;3.40;;;36.20;53.60;;;;;;5045279;28;20396;-62
2023/09/10 14:09:04;;;;;;;4.47;3.40;;;35.60;54.00;;;;;;5049544;28;20040;-64
2023/09/10 14:12:08;;;;;;;6.75;3.30;;;36.10;54.00;;;;;;5034493;28;20048;-62
2023/09/10 14:15:12;;;;;;;4.63;3.45;;;37.00;53.90;;;;;;5034528;28;20048;-62
2023/09/10 14:18:16;;;;;;;7.00;3.50;;;38.00;52.90;;;;;;5043122;28;20174;-62
2023/09/10 14:21:21;;;;;;;9.55;3.22;;;37.80;52.90;;;;;;5048862;28;20044;-61
2023/09/10 14:24:28;;;;;;;8.40;3.58;;;36.70;53.70;;;;;;5056616;28;20044;-62
2023/09/10 14:27:32;;;;;;;5.90;3.83;;;34.90;55.10;;;;;;5044250;28;20045;-59
2023/09/10 14:30:36;;;;;;;5.03;3.58;;;34.20;55.90;;;;;;5033992;28;20040;-62
2023/09/10 14:33:41;;;;;;;4.75;3.50;;;34.40;55.90;;;;;;5037615;28;20056;-62
2023/09/10 14:36:47;;;;;;;8.07;3.90;;;35.30;55.50;;;;;;5033906;28;20053;-62
2023/09/10 14:39:52;;;;;;;5.82;4.05;;;34.20;55.80;;;;;;5040227;28;20407;-61
2023/09/10 14:42:57;;;;;;;4.60;3.72;;;33.60;57.40;;;;;;5043712;28;20045;-62
2023/09/10 14:46:00;;;;;;;3.95;3.55;;;33.60;56.60;;;;;;5069050;22;20168;-54
2023/09/10 14:49:04;;;;;;;10.82;3.90;;;34.10;56.80;;;;;;5038035;28;20407;-57
2023/09/10 14:52:09;;;;;;;4.22;3.58;;;34.00;57.10;;;;;;5030197;28;20044;-56
2023/09/10 14:55:14;;;;;;;7.63;3.78;;;34.00;56.80;;;;;;5032524;28;20040;-56
2023/09/10 14:58:18;;;;;;;6.18;3.85;;;34.50;56.80;;;;;;5032995;28;20079;-56
2023/09/10 15:01:22;;;;;;;8.30;4.07;;;34.80;56.10;;;;;;5026155;28;20416;-58
2023/09/10 15:04:26;;;;;;;4.35;3.85;;;34.80;55.70;;;;;;5012582;28;20052;-57
2023/09/10 15:07:30;;;;;;;5.50;3.63;;;35.00;56.10;;;;;;5013038;28;20606;-59
2023/09/10 15:10:35;;;;;;;9.32;3.75;;;34.70;56.40;;;;;;5012901;28;20049;-58
2023/09/10 15:13:39;;;;;;;5.72;3.70;;;34.70;56.10;;;;;;5015511;28;20045;-55
2023/09/10 15:16:43;;;;;;;5.47;3.58;;;34.40;56.20;;;;;;5015717;28;20040;-57
2023/09/10 15:19:47;;;;;;;4.65;4.03;;;33.50;56.10;;;;;;5012767;28;20784;-56
2023/09/10 15:22:51;;;;;;;8.27;3.60;;;33.70;56.50;;;;;;5012969;28;20049;-54
2023/09/10 15:25:56;;;;;;;6.85;3.80;;;33.60;56.20;;;;;;5031099;28;20052;-54
2023/09/10 15:29:00;;;;;;;5.95;3.80;;;33.80;57.10;;;;;;5032186;28;20044;-56
2023/09/10 15:32:04;;;;;;;5.55;3.30;;;33.70;56.70;;;;;;5032318;28;20045;-57
2023/09/10 15:35:08;;;;;;;5.35;3.88;;;33.70;57.00;;;;;;5023610;28;20041;-57
2023/09/10 15:38:12;;;;;;;8.27;4.00;;;33.50;56.30;;;;;;5012819;28;20405;-55
2023/09/10 15:41:17;;;;;;;5.78;3.78;;;33.40;56.40;;;;;;5012431;28;20048;-54
2023/09/10 15:44:21;;;;;;;3.90;3.08;;;33.70;56.50;;;;;;5012456;28;20428;-58
2023/09/10 15:47:25;;;;;;;11.05;4.18;;;33.70;56.30;;;;;;5012275;28;20053;-57
2023/09/10 15:50:30;;;;;;;7.93;3.38;;;33.90;57.10;;;;;;5011841;28;20037;-56
2023/09/10 15:53:35;;;;;;;5.60;3.83;;;33.00;57.50;;;;;;5022114;28;20049;-56
2023/09/10 15:56:39;;;;;;;5.75;3.85;;;32.80;57.30;;;;;;5030168;28;20392;-58
2023/09/10 15:59:44;;;;;;;5.47;3.53;;;32.70;57.20;;;;;;5015003;28;20519;-56
2023/09/10 16:02:48;;;;;;;7.45;4.13;;;32.60;58.20;;;;;;5028973;28;20099;-56
2023/09/10 16:05:53;;;;;;;4.78;3.40;;;32.60;58.40;;;;;;5024025;28;20404;-59